• Join FlightAware (Why Join?)
  • Login
  • US Flag 
01:44AM EDT


 

Airport Tracker/Info


-or-


 

Live Flight TrackerFlight Track Log ✈ N233NC ✈ 26-Apr-2013 ✈ KGFK - D60

Flight Track Log - Related Links

Times and Time Zones

All times are in EDT time to prevent confusion due to time zone crossing. See the N233NC flight status page for this flight to view local times or setup timezone preferences in your user account.

Time Position Orientation Groundspeed Altitude Reporting Facility
EDT Latitude Longitude Course Direction KTS MPH feet Rate Location/Type
03:57PM 47.9517 -97.2128 299° West 116 133 1,500  Level Minneapolis Center
03:58PM 47.9672 -97.2539 299° West 121 139 2,700 1,140 Climbing Minneapolis Center
03:59PM 47.9844 -97.2917 304° West 115 132 3,800 1,080 Climbing Minneapolis Center
04:00PM 47.9897 -97.3344 280° West 111 128 4,800 900 Climbing Minneapolis Center
04:01PM 47.9942 -97.3911 277° West 112 129 5,900 840 Climbing Minneapolis Center
04:02PM 47.9978 -97.4358 277° West 111 128 6,800 720 Climbing Minneapolis Center
04:03PM 48.0033 -97.4928 278° West 112 129 7,500 540 Climbing Minneapolis Center
04:04PM 48.0081 -97.5467 277° West 120 138 8,000 480 Climbing Minneapolis Center
04:05PM 48.0128 -97.6014 277° West 127 146 8,500 480 Climbing Minneapolis Center
04:06PM 48.0181 -97.6556 278° West 130 150 9,000 480 Climbing Minneapolis Center
04:07PM 48.0233 -97.7081 279° West 130 150 9,500 480 Climbing Minneapolis Center
04:08PM 48.0275 -97.7592 277° West 128 147 10,000 480 Climbing Minneapolis Center
04:09PM 48.0336 -97.8214 278° West 127 146 10,500 480 Climbing Minneapolis Center
04:10PM 48.0378 -97.8731 277° West 126 145 11,000 480 Climbing Minneapolis Center
04:11PM 48.0425 -97.9247 278° West 126 145 11,500 480 Climbing Minneapolis Center
04:12PM 48.0475 -97.9753 278° West 126 145 12,000 240 Climbing Minneapolis Center
04:13PM 48.0517 -98.0306 276° West 128 147 12,000  Level Minneapolis Center
04:14PM 48.0586 -98.1031 278° West 138 159 12,000  Level Minneapolis Center
04:15PM 48.0636 -98.1614 277° West 141 162 12,000  Level Minneapolis Center
04:16PM 48.0675 -98.2214 276° West 144 166 12,000  Level Minneapolis Center
04:17PM 48.0739 -98.2761 280° West 140 161 12,000  Level Minneapolis Center
04:18PM 48.0794 -98.3311 279° West 137 158 12,000  Level Minneapolis Center
04:19PM 48.0833 -98.3883 276° West 137 158 12,000  Level Minneapolis Center
04:20PM 48.0892 -98.4572 277° West 138 159 12,000  Level Minneapolis Center
04:21PM 48.0936 -98.5136 277° West 138 159 12,000  Level Minneapolis Center
04:23PM 48.0986 -98.5725 277° West 140 161 12,000  Level Minneapolis Center
04:24PM 48.1033 -98.6306 277° West 141 162 12,000  Level Minneapolis Center
04:25PM 48.1086 -98.6892 278° West 142 163 12,000  Level Minneapolis Center
04:26PM 48.1147 -98.7561 278° West 139 160 12,000  Level Minneapolis Center
04:27PM 48.1194 -98.8153 277° West 141 162 12,000  Level Minneapolis Center
04:28PM 48.1236 -98.8733 276° West 141 162 12,000  Level Minneapolis Center
04:29PM 48.1286 -98.9289 278° West 139 160 12,000  Level Minneapolis Center
04:30PM 48.1336 -98.9872 277° West 140 161 12,000  Level Minneapolis Center
04:31PM 48.1386 -99.0450 277° West 140 161 12,000  Level Minneapolis Center
04:32PM 48.1436 -99.1161 276° West 142 163 12,000  Level Minneapolis Center
04:33PM 48.1481 -99.1744 277° West 142 163 12,000  Level Minneapolis Center
04:34PM 48.1531 -99.2333 277° West 142 163 12,000  Level Minneapolis Center
04:35PM 48.1583 -99.2922 278° West 143 165 12,000  Level Minneapolis Center
04:36PM 48.1625 -99.3497 276° West 141 162 12,000  Level Minneapolis Center
04:37PM 48.1672 -99.4089 277° West 142 163 12,000  Level Minneapolis Center
04:38PM 48.1708 -99.4794 274° West 142 163 12,000  Level Minneapolis Center
04:39PM 48.1761 -99.5372 278° West 142 163 12,000  Level Minneapolis Center
04:40PM 48.1808 -99.5956 277° West 142 163 12,000  Level Minneapolis Center
04:41PM 48.1850 -99.6550 276° West 142 163 12,000  Level Minneapolis Center
04:42PM 48.1897 -99.7125 277° West 142 163 12,000  Level Minneapolis Center
04:43PM 48.1950 -99.7833 276° West 142 163 12,000  Level Minneapolis Center
04:44PM 48.1994 -99.8417 277° West 142 163 12,000  Level Minneapolis Center
04:45PM 48.2036 -99.9006 276° West 142 163 12,000  Level Minneapolis Center
04:46PM 48.2072 -99.9594 275° West 142 163 12,000  Level Minneapolis Center
04:47PM 48.2111 -100.0194 276° West 143 165 12,000  Level Minneapolis Center
04:48PM 48.2158 -100.0781 277° West 143 165 12,000  Level Minneapolis Center
04:49PM 48.2208 -100.1500 276° West 144 166 12,000  Level Minneapolis Center
04:50PM 48.2264 -100.2092 278° West 144 166 12,000  Level Minneapolis Center
04:51PM 48.2297 -100.2689 275° West 144 166 12,000  Level Minneapolis Center
04:53PM 48.2336 -100.3281 276° West 144 166 12,000  Level Minneapolis Center
04:54PM 48.2381 -100.3847 277° West 141 162 12,000  Level Minneapolis Center
04:55PM 48.2422 -100.4425 276° West 140 161 12,000  Level Minneapolis Center
04:56PM 48.2464 -100.5131 275° West 140 161 12,000  Level Minneapolis Center
04:57PM 48.2500 -100.5711 275° West 140 161 12,000  Level Minneapolis Center
04:58PM 48.2533 -100.6294 275° West 140 161 12,000  Level Minneapolis Center
04:59PM 48.2581 -100.6853 277° West 139 160 12,000  Level Minneapolis Center
05:00PM 48.2614 -100.7428 275° West 138 159 12,000  Level Minneapolis Center
05:01PM 48.2647 -100.7997 275° West 138 159 12,000 -60 Level Minneapolis Center
05:02PM 48.2664 -100.8703 272° West 140 161 11,900 -60 Descending Minneapolis Center
05:03PM 48.2694 -100.9283 275° West 140 161 11,900  Level Minneapolis Center
05:04PM 48.2747 -100.9861 278° West 140 161 11,900  Level Minneapolis Center
05:05PM 48.2786 -101.0444 276° West 141 162 11,900  Level Minneapolis Center
05:06PM 48.2825 -101.1128 275° West 142 163 11,900  Level Minneapolis Center
05:07PM 48.2872 -101.1711 277° West 142 163 11,900  Level Minneapolis Center
05:08PM 48.2897 -101.2286 274° West 141 162 11,900  Level Minneapolis Center
05:09PM 48.2936 -101.2864 276° West 141 162 11,900  Level Minneapolis Center
05:10PM 48.2967 -101.3436 275° West 140 161 11,900  Level Minneapolis Center
05:11PM 48.2992 -101.4017 274° West 140 161 11,900  Level Minneapolis Center
05:12PM 48.3039 -101.4711 276° West 141 162 11,900  Level Minneapolis Center
05:13PM 48.3106 -101.5297 280° West 142 163 11,900  Level Minneapolis Center
05:14PM 48.3164 -101.5889 278° West 143 165 11,900  Level Minneapolis Center
05:15PM 48.3142 -101.6444 267° West 140 161 11,900  Level Minneapolis Center
05:16PM 48.3208 -101.7056 279° West 145 167 11,900  Level Minneapolis Center
05:17PM 48.3253 -101.7639 277° West 145 167 11,900 -300 Level Minneapolis Center
05:18PM 48.3294 -101.8403 275° West 148 170 11,300 -540 Descending Minneapolis Center
05:19PM 48.3319 -101.9067 273° West 153 176 10,800 -540 Descending Minneapolis Center
05:20PM 48.3356 -101.9703 275° West 155 178 10,300 -540 Descending Minneapolis Center
05:21PM 48.3381 -102.0361 273° West 156 180 9,800 -540 Descending Minneapolis Center
05:23PM 48.3419 -102.1050 275° West 160 184 9,300 -540 Descending Minneapolis Center
05:24PM 48.3453 -102.1747 274° West 164 189 8,800 -540 Descending Minneapolis Center
05:25PM 48.3497 -102.2592 275° West 167 192 8,200 -540 Descending Minneapolis Center
05:26PM 48.3525 -102.3292 273° West 168 193 7,700 -480 Descending Minneapolis Center
05:27PM 48.3564 -102.4017 275° West 170 196 7,200 -480 Descending Minneapolis Center
05:28PM 48.3592 -102.4711 273° West 170 196 6,700 -540 Descending Minneapolis Center
05:29PM 48.3639 -102.5419 276° West 170 196 6,200 -540 Descending Minneapolis Center
05:31PM 48.3665 -102.6439 272° West  Level FlightAware Approximate
05:38PM 48.3667 -102.8833 270° West  Level FlightAware Approximate
05:39PM 48.3803 -102.8974 270° West  Level Estimated
05:40PM 48.3803 -102.8974 270° West  Level Estimated
05:41PM 48.3803 -102.8974 270° West  Level Estimated
05:42PM 48.3803 -102.8974 270° West  Level Estimated
05:43PM 48.3803 -102.8974 270° West  Level Estimated
05:44PM 48.3803 -102.8974 270° West  Level Estimated
05:45PM 48.3803 -102.8974 270° West  Level Estimated
05:46PM 48.3803 -102.8974 270° West  Level Estimated
05:47PM 48.3803 -102.8974 270° West  Level Estimated
05:48PM 48.3803 -102.8974 270° West  Level Estimated
05:49PM 48.3803 -102.8974 270° West  Level Estimated
05:50PM 48.3803 -102.8974 270° West  Level Estimated
05:51PM 48.3803 -102.8974 270° West  Level Estimated
05:52PM 48.3803 -102.8974 270° West  Level Estimated
05:53PM 48.3803 -102.8974 270° West  Level Estimated